createdAt,value
2022-12-06T00:01:04.609Z,3.40
2022-12-06T00:03:31.771Z,3.70
2022-12-06T00:06:05.869Z,3.70
2022-12-06T00:08:32.833Z,3.60
2022-12-06T00:11:03.851Z,3.60
2022-12-06T00:13:30.688Z,3.60
2022-12-06T00:15:59.966Z,3.40
2022-12-06T00:18:26.827Z,3.50
2022-12-06T00:20:53.692Z,3.60
2022-12-06T00:23:20.495Z,3.50
2022-12-06T00:25:47.356Z,3.70
2022-12-06T00:28:14.221Z,3.70
2022-12-06T00:30:41.123Z,3.70
2022-12-06T00:33:07.941Z,3.60
2022-12-06T00:35:34.811Z,3.60
2022-12-06T00:38:01.680Z,3.60
2022-12-06T00:40:28.609Z,3.60
2022-12-06T00:42:55.456Z,3.70
2022-12-06T00:45:22.333Z,3.60
2022-12-06T00:47:49.248Z,3.60
2022-12-06T00:50:16.087Z,3.60
2022-12-06T00:52:42.950Z,3.60
2022-12-06T00:55:09.783Z,3.50
2022-12-06T00:57:36.644Z,3.60
2022-12-06T01:00:03.921Z,3.80
2022-12-06T01:02:30.807Z,3.80
2022-12-06T01:04:57.852Z,3.80
2022-12-06T01:07:24.725Z,3.70
2022-12-06T01:09:51.604Z,3.70
2022-12-06T01:12:18.546Z,3.90
2022-12-06T01:14:45.388Z,3.90
2022-12-06T01:17:12.313Z,3.90
2022-12-06T01:19:39.305Z,3.90
2022-12-06T01:22:06.953Z,4.00
2022-12-06T01:24:33.785Z,3.80
2022-12-06T01:27:00.772Z,4.10
2022-12-06T01:29:27.677Z,4.10
2022-12-06T01:31:54.513Z,4.10
2022-12-06T01:34:21.388Z,4.10
2022-12-06T01:36:49.160Z,4.10
2022-12-06T01:39:16.031Z,4.00
2022-12-06T01:41:42.880Z,4.00
2022-12-06T01:44:28.447Z,4.00
2022-12-06T01:46:55.501Z,4.00
2022-12-06T01:49:25.287Z,4.00
2022-12-06T01:51:57.225Z,3.90
2022-12-06T01:54:24.373Z,4.00
2022-12-06T01:56:52.763Z,4.00
2022-12-06T01:59:20.725Z,3.90
2022-12-06T02:01:47.975Z,4.00
2022-12-06T02:04:16.502Z,4.10
2022-12-06T02:06:43.929Z,4.00
2022-12-06T02:09:11.272Z,3.90
2022-12-06T02:11:38.406Z,3.90
2022-12-06T02:14:07.461Z,4.00
2022-12-06T02:16:43.711Z,4.00
2022-12-06T02:19:10.555Z,4.00
2022-12-06T02:21:56.401Z,3.90
2022-12-06T02:24:47.252Z,3.90
2022-12-06T02:27:17.207Z,4.00
2022-12-06T02:29:47.027Z,4.00
2022-12-06T02:32:13.934Z,4.10
2022-12-06T02:34:44.296Z,4.00
2022-12-06T02:37:14.088Z,4.00
2022-12-06T02:39:49.956Z,3.90
2022-12-06T02:42:19.989Z,4.50
2022-12-06T02:44:53.209Z,4.10
2022-12-06T02:47:22.559Z,4.00
2022-12-06T02:49:54.980Z,4.00
2022-12-06T02:52:24.387Z,4.10
2022-12-06T02:54:51.844Z,4.10
2022-12-06T02:57:19.864Z,4.20
2022-12-06T02:59:53.592Z,4.20
2022-12-06T03:02:22.038Z,4.20
2022-12-06T03:05:12.237Z,4.30
2022-12-06T03:07:41.856Z,4.20
2022-12-06T03:10:24.055Z,4.30
2022-12-06T03:13:05.959Z,4.30
2022-12-06T03:15:38.158Z,4.30
2022-12-06T03:18:05.167Z,4.30
2022-12-06T03:20:34.671Z,4.30
2022-12-06T03:23:04.512Z,4.20
2022-12-06T03:25:34.152Z,4.20
2022-12-06T03:28:01.869Z,4.10
2022-12-06T03:30:31.456Z,4.10
2022-12-06T03:32:58.709Z,4.10
2022-12-06T03:35:27.909Z,4.20
2022-12-06T03:38:02.051Z,4.10
2022-12-06T03:40:30.359Z,4.10
2022-12-06T03:42:57.852Z,4.20
2022-12-06T03:45:28.871Z,4.00
2022-12-06T03:48:04.960Z,4.10
2022-12-06T03:50:43.476Z,4.20
2022-12-06T03:53:10.618Z,4.10
2022-12-06T03:55:37.494Z,4.10
2022-12-06T03:58:04.521Z,4.00
2022-12-06T04:00:31.373Z,4.10
2022-12-06T04:02:58.257Z,4.10
2022-12-06T04:05:25.085Z,4.10
2022-12-06T04:07:52.090Z,4.10
2022-12-06T04:10:18.992Z,4.10
2022-12-06T04:13:00.932Z,4.10
2022-12-06T04:15:32.237Z,4.00
2022-12-06T04:18:11.636Z,4.00
2022-12-06T04:21:06.458Z,4.00
2022-12-06T04:23:34.988Z,3.90
2022-12-06T04:26:02.033Z,3.90
2022-12-06T04:28:47.556Z,4.00
2022-12-06T04:31:33.246Z,4.10
2022-12-06T04:34:18.763Z,4.10
2022-12-06T04:37:04.738Z,4.00
2022-12-06T04:39:32.021Z,4.00
2022-12-06T04:42:17.586Z,4.00
2022-12-06T04:44:44.737Z,4.00
2022-12-06T04:47:11.679Z,4.10
2022-12-06T04:49:38.896Z,4.10
2022-12-06T04:52:07.389Z,4.10
2022-12-06T04:54:34.806Z,4.10
2022-12-06T04:57:01.835Z,4.10
2022-12-06T04:59:28.908Z,4.10
2022-12-06T05:01:56.365Z,4.00
2022-12-06T05:04:23.523Z,4.00
2022-12-06T05:06:50.454Z,4.00
2022-12-06T05:09:17.319Z,4.00
2022-12-06T05:11:44.230Z,4.00
2022-12-06T05:14:11.176Z,4.00
2022-12-06T05:16:38.174Z,4.00
2022-12-06T05:19:05.070Z,4.00
2022-12-06T05:21:32.044Z,4.00
2022-12-06T05:23:58.924Z,3.90
2022-12-06T05:26:27.445Z,4.00
2022-12-06T05:28:54.712Z,4.00
2022-12-06T05:31:22.190Z,4.10
2022-12-06T05:33:49.295Z,4.00
2022-12-06T05:36:19.048Z,4.10
2022-12-06T05:38:51.088Z,4.10
2022-12-06T05:41:22.176Z,4.10
2022-12-06T05:43:49.301Z,4.10
2022-12-06T05:46:16.191Z,4.10
2022-12-06T05:48:43.162Z,4.20
2022-12-06T05:51:09.998Z,4.10
2022-12-06T05:53:36.984Z,4.00
2022-12-06T05:56:08.674Z,4.10
2022-12-06T05:58:35.702Z,4.10
2022-12-06T06:01:02.851Z,4.10
2022-12-06T06:03:29.795Z,4.00
2022-12-06T06:05:58.323Z,4.10
2022-12-06T06:08:25.743Z,4.10
2022-12-06T06:10:52.901Z,4.10
2022-12-06T06:13:19.860Z,4.00
2022-12-06T06:15:47.549Z,3.90
2022-12-06T06:18:15.374Z,4.10
2022-12-06T06:20:42.225Z,4.10
2022-12-06T06:23:09.047Z,4.00
2022-12-06T06:25:35.932Z,4.00
2022-12-06T06:28:02.816Z,4.10
2022-12-06T06:30:29.642Z,4.10
2022-12-06T06:32:56.530Z,4.00
2022-12-06T06:35:23.437Z,4.20
2022-12-06T06:37:50.345Z,4.20
2022-12-06T06:40:17.238Z,4.20
2022-12-06T06:42:44.088Z,4.10
2022-12-06T06:45:11.210Z,4.10
2022-12-06T06:47:38.039Z,4.00
2022-12-06T06:50:05.475Z,4.00
2022-12-06T06:52:32.891Z,4.10
2022-12-06T06:54:59.965Z,4.10
2022-12-06T06:57:26.862Z,4.10
2022-12-06T06:59:53.710Z,4.10
2022-12-06T07:02:20.719Z,4.10
2022-12-06T07:04:47.643Z,4.00
2022-12-06T07:07:20.733Z,4.20
2022-12-06T07:09:48.343Z,4.20
2022-12-06T07:12:15.515Z,4.10
2022-12-06T07:14:42.396Z,4.20
2022-12-06T07:17:09.328Z,4.20
2022-12-06T07:19:36.303Z,4.30
2022-12-06T07:22:03.237Z,4.30
2022-12-06T07:24:30.097Z,4.20
2022-12-06T07:26:57.448Z,4.20
2022-12-06T07:29:24.330Z,4.30
2022-12-06T07:31:51.229Z,4.30
2022-12-06T07:34:18.118Z,4.40
2022-12-06T07:36:44.991Z,4.50
2022-12-06T07:39:15.027Z,4.40
2022-12-06T07:42:00.785Z,4.30
2022-12-06T07:45:03.362Z,4.30
2022-12-06T07:47:36.498Z,4.30
2022-12-06T07:50:04.132Z,4.30
2022-12-06T07:52:32.287Z,4.40
2022-12-06T07:54:59.248Z,4.30
2022-12-06T07:57:26.148Z,4.40
2022-12-06T07:59:52.972Z,4.30
2022-12-06T08:02:22.209Z,4.40
2022-12-06T08:04:49.250Z,4.40
2022-12-06T08:07:16.168Z,4.50
2022-12-06T08:09:42.996Z,4.50
2022-12-06T08:12:10.032Z,4.30
2022-12-06T08:14:37.284Z,4.40
2022-12-06T08:17:04.720Z,4.50
2022-12-06T08:19:32.187Z,4.50
2022-12-06T08:21:59.311Z,4.40
2022-12-06T08:24:26.152Z,4.60
2022-12-06T08:26:53.286Z,4.50
2022-12-06T08:29:20.093Z,4.60
2022-12-06T08:31:47.109Z,4.60
2022-12-06T08:34:15.489Z,4.50
2022-12-06T08:36:42.625Z,4.50
2022-12-06T08:39:11.000Z,4.50
2022-12-06T08:41:56.033Z,4.60
2022-12-06T08:44:23.068Z,4.50
2022-12-06T08:46:50.222Z,4.50
2022-12-06T08:49:17.548Z,4.50
2022-12-06T08:51:44.535Z,4.50
2022-12-06T08:54:13.716Z,4.50
2022-12-06T08:56:40.629Z,4.40
2022-12-06T08:59:07.776Z,4.40
2022-12-06T09:01:38.169Z,4.50
2022-12-06T09:04:06.830Z,4.60
2022-12-06T09:06:34.264Z,4.50
2022-12-06T09:09:01.144Z,4.50
2022-12-06T09:11:27.973Z,4.40
2022-12-06T09:13:54.922Z,4.50
2022-12-06T09:16:23.345Z,4.40
2022-12-06T09:18:52.308Z,4.50
2022-12-06T09:21:20.897Z,4.60
2022-12-06T09:23:47.747Z,4.60
2022-12-06T09:26:14.658Z,4.70
2022-12-06T09:28:42.350Z,4.70
2022-12-06T09:31:09.763Z,4.70
2022-12-06T09:33:37.336Z,4.70
2022-12-06T09:36:11.776Z,4.80
2022-12-06T09:38:39.793Z,4.90
2022-12-06T09:41:09.428Z,4.80
2022-12-06T09:43:54.795Z,4.90
2022-12-06T09:46:21.657Z,4.90
2022-12-06T09:48:49.359Z,4.90
2022-12-06T09:51:35.255Z,5.00
2022-12-06T09:54:11.902Z,4.90
2022-12-06T09:56:51.613Z,4.90
2022-12-06T09:59:43.181Z,4.90
2022-12-06T10:02:12.838Z,4.90
2022-12-06T10:05:06.176Z,5.00
2022-12-06T10:07:53.650Z,4.80
2022-12-06T10:10:33.192Z,4.80
2022-12-06T10:13:00.447Z,4.70
2022-12-06T10:15:43.670Z,4.70
2022-12-06T10:18:29.602Z,4.80
2022-12-06T10:21:05.838Z,4.70
2022-12-06T10:23:32.714Z,4.90
2022-12-06T10:26:08.349Z,4.80
2022-12-06T10:29:01.268Z,4.80
2022-12-06T10:31:32.458Z,4.90
2022-12-06T10:34:12.075Z,4.90
2022-12-06T10:36:42.581Z,5.00
2022-12-06T10:39:16.543Z,5.00
2022-12-06T10:41:55.658Z,5.10
2022-12-06T10:44:22.447Z,5.20
2022-12-06T10:47:04.269Z,5.20
2022-12-06T10:49:52.548Z,5.10
2022-12-06T10:52:22.174Z,5.10
2022-12-06T10:54:49.012Z,5.00
2022-12-06T10:57:19.095Z,5.20
2022-12-06T11:00:03.233Z,5.20
2022-12-06T11:02:34.529Z,5.20
2022-12-06T11:05:03.640Z,5.10
2022-12-06T11:07:41.917Z,5.10
2022-12-06T11:10:26.904Z,5.10
2022-12-06T11:12:59.569Z,5.20
2022-12-06T11:15:36.180Z,5.20
2022-12-06T11:18:10.409Z,5.20
2022-12-06T11:20:40.380Z,5.20
2022-12-06T11:23:16.410Z,5.30
2022-12-06T11:26:01.958Z,5.20
2022-12-06T11:28:34.440Z,5.20
2022-12-06T11:31:01.935Z,5.30
2022-12-06T11:33:33.392Z,5.40
2022-12-06T11:36:02.545Z,5.40
2022-12-06T11:38:29.664Z,5.40
2022-12-06T11:40:57.864Z,5.30
2022-12-06T11:43:27.210Z,5.30
2022-12-06T11:45:54.892Z,5.10
2022-12-06T11:48:23.408Z,5.00
2022-12-06T11:50:51.247Z,5.00
2022-12-06T11:53:28.517Z,5.10
2022-12-06T11:56:01.076Z,5.10
2022-12-06T11:58:27.982Z,5.10
2022-12-06T12:01:02.899Z,4.90
2022-12-06T12:03:31.804Z,5.00
2022-12-06T12:06:17.567Z,5.00
2022-12-06T12:08:51.824Z,5.00
2022-12-06T12:11:23.642Z,5.20
2022-12-06T12:13:55.856Z,5.20
2022-12-06T12:16:24.974Z,5.20
2022-12-06T12:18:59.855Z,5.20
2022-12-06T12:21:40.026Z,5.10
2022-12-06T12:24:27.203Z,5.10
2022-12-06T12:26:54.080Z,5.00
2022-12-06T12:29:21.152Z,4.80
2022-12-06T12:31:55.965Z,4.70
2022-12-06T12:34:26.781Z,4.70
2022-12-06T12:36:57.908Z,4.60
2022-12-06T12:39:27.321Z,4.60
2022-12-06T12:41:54.313Z,4.60
2022-12-06T12:44:42.428Z,4.70
2022-12-06T12:47:20.013Z,4.70
2022-12-06T12:50:00.779Z,4.70
2022-12-06T12:52:32.198Z,4.90
2022-12-06T12:55:13.769Z,5.10
2022-12-06T12:57:41.091Z,5.20
2022-12-06T13:00:13.900Z,5.00
2022-12-06T13:02:41.299Z,5.10
2022-12-06T13:05:35.174Z,5.20
2022-12-06T13:08:12.312Z,5.30
2022-12-06T13:10:39.759Z,5.10
2022-12-06T13:13:13.221Z,5.10
2022-12-06T13:15:56.543Z,5.10
2022-12-06T13:18:28.427Z,5.00
2022-12-06T13:20:57.843Z,5.00
2022-12-06T13:23:26.754Z,5.00
2022-12-06T13:26:02.940Z,5.00
2022-12-06T13:28:33.333Z,5.00
2022-12-06T13:31:02.227Z,5.00
2022-12-06T13:33:31.997Z,5.10
2022-12-06T13:36:07.560Z,4.90
2022-12-06T13:38:38.852Z,4.90
2022-12-06T13:41:06.869Z,4.90
2022-12-06T13:43:39.317Z,4.90
2022-12-06T13:46:07.270Z,5.10
2022-12-06T13:48:51.968Z,5.00
2022-12-06T13:51:30.928Z,5.10
2022-12-06T13:54:03.777Z,5.20
2022-12-06T13:56:33.459Z,5.20
2022-12-06T13:59:20.561Z,5.20
2022-12-06T14:01:51.343Z,5.20
2022-12-06T14:04:24.446Z,5.20
2022-12-06T14:06:55.134Z,5.30
2022-12-06T14:09:23.743Z,5.20
2022-12-06T14:11:50.615Z,5.20
2022-12-06T14:14:21.881Z,5.10
2022-12-06T14:16:48.745Z,5.10
2022-12-06T14:19:20.307Z,5.10
2022-12-06T14:21:52.296Z,5.20
2022-12-06T14:24:29.235Z,5.20
2022-12-06T14:27:02.671Z,5.20
2022-12-06T14:29:30.441Z,5.30
2022-12-06T14:31:57.301Z,5.20
2022-12-06T14:34:25.428Z,5.20
2022-12-06T14:36:52.664Z,5.10
2022-12-06T14:39:20.707Z,5.00
2022-12-06T14:42:10.788Z,5.00
2022-12-06T14:44:37.812Z,5.00
2022-12-06T14:47:04.873Z,4.90
2022-12-06T14:50:12.659Z,4.80
2022-12-06T14:53:14.659Z,4.90
2022-12-06T14:56:02.077Z,4.70
2022-12-06T14:58:36.365Z,4.70
2022-12-06T15:01:05.500Z,4.70
2022-12-06T15:03:36.539Z,4.70
2022-12-06T15:06:09.812Z,4.60
2022-12-06T15:08:38.194Z,4.60
2022-12-06T15:11:05.061Z,4.60
2022-12-06T15:13:32.095Z,4.40
2022-12-06T15:16:19.262Z,4.30
2022-12-06T15:19:00.089Z,4.30
2022-12-06T15:21:26.962Z,4.40
2022-12-06T15:23:54.651Z,4.40
2022-12-06T15:26:22.649Z,4.50
2022-12-06T15:28:50.110Z,4.50
2022-12-06T15:31:19.984Z,4.40
2022-12-06T15:33:46.923Z,4.40
2022-12-06T15:36:18.184Z,4.40
2022-12-06T15:38:45.145Z,4.30
2022-12-06T15:41:17.093Z,4.40
2022-12-06T15:43:44.186Z,4.30
2022-12-06T15:46:16.768Z,4.20
2022-12-06T15:48:43.819Z,4.20
2022-12-06T15:51:18.886Z,4.20
2022-12-06T15:53:47.788Z,4.30
2022-12-06T15:56:15.625Z,4.20
2022-12-06T15:58:42.875Z,4.40
2022-12-06T16:01:23.646Z,4.50
2022-12-06T16:03:51.343Z,4.60
2022-12-06T16:06:19.123Z,4.60
2022-12-06T16:08:46.373Z,4.50
2022-12-06T16:11:14.419Z,4.70
2022-12-06T16:13:41.367Z,4.60
2022-12-06T16:16:11.374Z,4.50
2022-12-06T16:18:38.246Z,4.60
2022-12-06T16:21:06.036Z,4.50
2022-12-06T16:26:39.425Z,4.30
2022-12-06T16:29:07.460Z,4.30
2022-12-06T16:31:38.603Z,4.30
2022-12-06T16:34:05.925Z,4.50
2022-12-06T16:36:33.000Z,4.40
2022-12-06T16:39:02.126Z,4.30
2022-12-06T16:41:30.297Z,4.40
2022-12-06T16:43:57.573Z,4.20
2022-12-06T16:46:24.879Z,4.20
2022-12-06T16:48:59.783Z,4.10
2022-12-06T16:51:34.419Z,4.10
2022-12-06T16:54:01.928Z,4.10
2022-12-06T16:56:29.225Z,4.10
2022-12-06T16:58:56.102Z,4.00
2022-12-06T17:01:27.716Z,4.10
2022-12-06T17:03:58.981Z,4.20
2022-12-06T17:06:26.737Z,4.30
2022-12-06T17:08:54.079Z,4.20
2022-12-06T17:11:44.347Z,4.40
2022-12-06T17:14:11.926Z,4.40
2022-12-06T17:16:39.379Z,4.30
2022-12-06T17:19:07.568Z,4.20
2022-12-06T17:21:35.069Z,4.30
2022-12-06T17:24:02.624Z,4.20
2022-12-06T17:26:30.560Z,4.10
2022-12-06T17:28:58.189Z,4.00
2022-12-06T17:31:25.439Z,4.00
2022-12-06T17:33:53.223Z,3.90
2022-12-06T17:36:25.017Z,4.00
2022-12-06T17:38:56.948Z,4.00
2022-12-06T17:41:48.416Z,3.90
2022-12-06T17:44:18.525Z,3.80
2022-12-06T17:46:45.950Z,3.90
2022-12-06T17:49:14.757Z,3.90
2022-12-06T17:51:41.664Z,3.80
2022-12-06T17:54:09.461Z,4.10
2022-12-06T17:56:41.004Z,4.00
2022-12-06T17:59:09.024Z,4.00
2022-12-06T18:02:06.301Z,4.10
2022-12-06T18:04:23.192Z,4.00
2022-12-06T18:06:50.006Z,3.90
2022-12-06T18:09:17.032Z,4.00
2022-12-06T18:11:44.201Z,4.00
2022-12-06T18:14:14.476Z,4.00
2022-12-06T18:16:42.578Z,4.00
2022-12-06T18:19:11.750Z,3.90
2022-12-06T18:21:39.817Z,3.70
2022-12-06T18:24:25.549Z,3.70
2022-12-06T18:26:54.153Z,3.70
2022-12-06T18:29:22.772Z,3.80
2022-12-06T18:31:50.403Z,3.70
2022-12-06T18:34:17.451Z,4.00
2022-12-06T18:36:44.391Z,4.00
2022-12-06T18:39:15.334Z,3.90
2022-12-06T18:41:43.423Z,3.80
2022-12-06T18:44:10.858Z,3.70
2022-12-06T18:46:39.043Z,3.70
2022-12-06T18:49:06.423Z,3.70
2022-12-06T18:51:34.676Z,3.60
2022-12-06T18:54:03.269Z,3.60
2022-12-06T18:56:30.787Z,3.60
2022-12-06T18:59:01.569Z,3.60
2022-12-06T19:01:29.965Z,3.60
2022-12-06T19:03:59.558Z,3.60
2022-12-06T19:06:27.959Z,3.70
2022-12-06T19:08:55.898Z,3.70
2022-12-06T19:11:23.249Z,3.80
2022-12-06T19:13:50.714Z,3.80
2022-12-06T19:16:20.763Z,3.90
2022-12-06T19:18:51.124Z,3.90
2022-12-06T19:21:18.071Z,3.80
2022-12-06T19:23:45.100Z,3.80
2022-12-06T19:26:12.344Z,4.00
2022-12-06T19:28:40.382Z,3.90
2022-12-06T19:31:08.586Z,3.90
2022-12-06T19:33:39.628Z,3.90
2022-12-06T19:36:08.394Z,3.90
2022-12-06T19:38:35.652Z,4.00
2022-12-06T19:41:06.694Z,3.90
2022-12-06T19:43:52.076Z,3.80
2022-12-06T19:46:26.037Z,4.00
2022-12-06T19:48:55.270Z,4.00
2022-12-06T19:51:22.085Z,3.80
2022-12-06T19:53:49.054Z,3.80
2022-12-06T19:56:17.090Z,3.70
2022-12-06T19:58:44.378Z,3.80
2022-12-06T20:01:13.574Z,3.70
2022-12-06T20:03:40.567Z,3.70
2022-12-06T20:06:09.609Z,3.70
2022-12-06T20:08:38.004Z,3.90
2022-12-06T20:11:05.902Z,3.80
2022-12-06T20:13:33.264Z,3.70
2022-12-06T20:16:03.599Z,3.70
2022-12-06T20:18:31.437Z,3.70
2022-12-06T20:20:58.634Z,3.70
2022-12-06T20:23:25.550Z,3.70
2022-12-06T20:25:56.340Z,3.80
2022-12-06T20:28:23.176Z,3.90
2022-12-06T20:30:50.068Z,4.00
2022-12-06T20:33:17.145Z,3.90
2022-12-06T20:35:44.077Z,3.90
2022-12-06T20:38:10.923Z,3.80
2022-12-06T20:40:37.774Z,3.90
2022-12-06T20:43:04.834Z,3.90
2022-12-06T20:45:31.834Z,3.80
2022-12-06T20:47:58.792Z,3.70
2022-12-06T20:50:25.943Z,3.70
2022-12-06T20:52:53.199Z,3.80
2022-12-06T20:55:20.042Z,3.80
2022-12-06T20:57:47.036Z,3.70
2022-12-06T21:00:14.627Z,3.70
2022-12-06T21:02:41.779Z,3.80
2022-12-06T21:05:08.924Z,3.70
2022-12-06T21:07:35.824Z,3.70
2022-12-06T21:10:02.943Z,3.70
2022-12-06T21:12:30.198Z,3.70
2022-12-06T21:14:57.148Z,3.60
2022-12-06T21:17:25.865Z,3.60
2022-12-06T21:19:52.709Z,3.60
2022-12-06T21:22:19.633Z,3.60
2022-12-06T21:24:47.068Z,3.80
2022-12-06T21:27:13.958Z,3.90
2022-12-06T21:29:42.677Z,3.90
2022-12-06T21:32:09.583Z,3.80
2022-12-06T21:34:40.272Z,3.80
2022-12-06T21:37:11.520Z,3.90
2022-12-06T21:39:39.049Z,3.80
2022-12-06T21:42:05.995Z,3.80
2022-12-06T21:44:32.850Z,3.90
2022-12-06T21:46:59.856Z,3.80
2022-12-06T21:49:26.887Z,3.80
2022-12-06T21:51:59.660Z,3.80
2022-12-06T21:54:29.145Z,3.70
2022-12-06T21:56:57.008Z,3.70
2022-12-06T21:59:24.122Z,3.80
2022-12-06T22:01:51.418Z,3.80
2022-12-06T22:04:18.369Z,3.80
2022-12-06T22:06:45.252Z,3.70
2022-12-06T22:09:12.116Z,3.60
2022-12-06T22:11:39.505Z,3.70
2022-12-06T22:14:06.632Z,3.70
2022-12-06T22:16:33.692Z,3.60
2022-12-06T22:19:00.700Z,3.60
2022-12-06T22:21:28.961Z,3.50
2022-12-06T22:23:58.009Z,3.50
2022-12-06T22:26:28.805Z,3.50
2022-12-06T22:28:55.762Z,3.50
2022-12-06T22:31:23.915Z,3.40
2022-12-06T22:33:51.358Z,3.30
2022-12-06T22:36:19.353Z,3.30
2022-12-06T22:38:53.355Z,3.30
2022-12-06T22:41:20.540Z,3.20
2022-12-06T22:43:50.924Z,3.20
2022-12-06T22:46:18.078Z,3.20
2022-12-06T22:48:44.982Z,3.30
2022-12-06T22:51:11.912Z,3.20
2022-12-06T22:53:39.365Z,3.40
2022-12-06T22:56:06.455Z,3.40
2022-12-06T22:58:33.396Z,3.50
2022-12-06T23:01:07.292Z,3.50
2022-12-06T23:03:34.290Z,3.40
2022-12-06T23:06:01.161Z,3.50
2022-12-06T23:08:28.169Z,3.30
2022-12-06T23:11:02.126Z,3.40
2022-12-06T23:13:29.609Z,3.30
2022-12-06T23:15:57.566Z,3.30
2022-12-06T23:18:24.605Z,3.20
2022-12-06T23:21:01.032Z,3.30
2022-12-06T23:23:27.900Z,3.40
2022-12-06T23:25:54.811Z,3.30
2022-12-06T23:28:21.621Z,3.30
2022-12-06T23:30:48.590Z,3.30
2022-12-06T23:33:21.079Z,3.30
2022-12-06T23:35:49.553Z,3.40
2022-12-06T23:38:16.408Z,3.40
2022-12-06T23:40:43.245Z,3.30
2022-12-06T23:43:10.155Z,3.30
2022-12-06T23:45:37.000Z,3.30
2022-12-06T23:48:04.027Z,3.20
2022-12-06T23:50:30.951Z,3.20
2022-12-06T23:52:57.842Z,3.20
2022-12-06T23:55:24.642Z,3.20
2022-12-06T23:57:51.521Z,3.10
